Time;durP1;ratioP1;P1;durP2;ratioP2;P2;SDS_P1;SDS_P2;PMS_P1;PMS_P2;Temp;Humidity;BMP_temperature;BMP_pressure;BME280_temperature;BME280_humidity;BME280_pressure;Samples;Min_cycle;Max_cycle;Signal;HPM_P1;HPM_P2
2023/12/29 00:00:21;;;;;;;15.50;14.50;;;10.70;99.90;;;;;;4995816;28;20546;-86
2023/12/29 00:02:48;;;;;;;15.47;14.43;;;10.70;99.90;;;;;;4996986;28;20680;-79
2023/12/29 00:05:15;;;;;;;15.73;14.57;;;10.70;99.90;;;;;;4996923;28;20668;-81
2023/12/29 00:07:43;;;;;;;16.00;14.70;;;10.80;99.90;;;;;;4999648;28;20267;-79
2023/12/29 00:10:10;;;;;;;15.40;14.20;;;10.70;99.90;;;;;;5003582;28;20604;-85
2023/12/29 00:12:39;;;;;;;15.37;14.27;;;10.80;99.90;;;;;;4997030;28;20190;-83
2023/12/29 00:15:06;;;;;;;16.07;14.90;;;10.80;99.90;;;;;;4997950;28;20296;-86
2023/12/29 00:17:40;;;;;;;16.07;14.73;;;10.80;99.90;;;;;;4981487;28;20193;-88
2023/12/29 00:20:08;;;;;;;19.13;15.13;;;10.80;99.90;;;;;;4966646;28;20725;-85
2023/12/29 00:22:35;;;;;;;15.63;14.43;;;10.80;99.90;;;;;;5001319;28;20209;-82
2023/12/29 00:25:03;;;;;;;15.50;14.40;;;10.80;99.90;;;;;;4985407;28;20217;-81
2023/12/29 00:27:30;;;;;;;15.80;14.50;;;10.90;99.90;;;;;;5000133;28;20275;-80
2023/12/29 00:29:57;;;;;;;15.20;14.20;;;10.90;99.90;;;;;;4997372;28;20661;-83
2023/12/29 00:32:25;;;;;;;15.77;14.40;;;10.90;99.90;;;;;;4993252;28;20219;-86
2023/12/29 00:34:52;;;;;;;15.57;14.50;;;11.00;99.90;;;;;;5002159;28;20587;-83
2023/12/29 00:37:21;;;;;;;15.80;14.57;;;11.00;99.90;;;;;;5002506;28;20224;-87
2023/12/29 00:39:48;;;;;;;15.27;14.37;;;11.00;99.90;;;;;;4991253;28;20206;-86
2023/12/29 00:42:17;;;;;;;15.50;14.40;;;11.00;99.90;;;;;;5020005;28;20560;-86
2023/12/29 00:44:44;;;;;;;15.77;14.60;;;10.90;99.90;;;;;;5018052;28;20755;-85
2023/12/29 00:47:12;;;;;;;15.77;14.53;;;10.90;99.90;;;;;;4981152;28;20194;-86
2023/12/29 00:49:41;;;;;;;15.47;14.37;;;10.90;99.90;;;;;;4984825;28;20660;-84
2023/12/29 00:52:09;;;;;;;15.50;14.50;;;10.90;99.90;;;;;;4984016;28;20205;-86
2023/12/29 00:54:36;;;;;;;15.60;14.60;;;10.90;99.90;;;;;;4998498;28;20716;-86
2023/12/29 00:57:04;;;;;;;15.03;14.03;;;10.90;99.90;;;;;;4983020;28;20645;-83
2023/12/29 00:59:38;;;;;;;15.37;14.27;;;10.90;99.90;;;;;;4998341;28;20208;-83
2023/12/29 01:02:07;;;;;;;15.30;14.23;;;10.90;99.90;;;;;;4990765;28;20862;-86
2023/12/29 01:04:36;;;;;;;15.50;14.30;;;11.00;99.90;;;;;;4998725;28;20216;-87
2023/12/29 01:07:04;;;;;;;15.80;14.60;;;11.00;99.90;;;;;;4991277;28;20276;-81
2023/12/29 01:09:31;;;;;;;15.70;14.40;;;10.90;99.90;;;;;;5009541;28;20223;-85
2023/12/29 01:11:59;;;;;;;15.10;14.20;;;10.90;99.90;;;;;;5018751;28;20603;-85
2023/12/29 01:14:28;;;;;;;15.53;14.30;;;10.90;99.90;;;;;;4986427;28;20205;-86
2023/12/29 01:16:57;;;;;;;15.60;14.30;;;10.90;99.90;;;;;;5013151;28;20463;-84
2023/12/29 01:19:26;;;;;;;15.40;14.13;;;10.90;99.90;;;;;;4998296;28;20295;-85
2023/12/29 01:21:54;;;;;;;15.10;14.20;;;10.90;99.90;;;;;;5012446;28;20657;-85
2023/12/29 01:24:21;;;;;;;15.57;14.33;;;10.90;99.90;;;;;;5015684;28;20212;-86
2023/12/29 01:26:58;;;;;;;16.93;15.10;;;11.00;99.90;;;;;;5015011;28;20189;-85
2023/12/29 01:29:26;;;;;;;14.70;13.90;;;11.00;99.90;;;;;;4996297;28;20188;-84
2023/12/29 01:31:53;;;;;;;15.30;14.20;;;11.10;99.90;;;;;;5001848;28;20196;-83
2023/12/29 01:34:21;;;;;;;16.03;14.60;;;11.10;99.90;;;;;;5009140;28;20255;-83
2023/12/29 01:36:48;;;;;;;15.27;14.27;;;11.10;99.90;;;;;;4999597;28;20234;-81
2023/12/29 01:39:19;;;;;;;16.17;14.87;;;11.00;99.90;;;;;;5024719;28;20196;-85
2023/12/29 01:41:46;;;;;;;15.00;14.10;;;11.00;99.90;;;;;;5031195;28;20210;-84
2023/12/29 01:44:21;;;;;;;15.30;14.30;;;11.00;99.90;;;;;;5010358;28;20216;-81
2023/12/29 01:46:54;;;;;;;16.60;15.20;;;11.00;99.90;;;;;;4997577;28;20236;-80
2023/12/29 01:49:22;;;;;;;15.10;14.20;;;11.00;99.90;;;;;;4990285;28;20263;-80
2023/12/29 01:51:57;;;;;;;15.10;14.20;;;11.00;99.90;;;;;;4991398;28;20205;-79
2023/12/29 01:54:37;;;;;;;16.00;14.73;;;11.00;99.90;;;;;;5015402;28;20199;-79
2023/12/29 01:57:08;;;;;;;15.43;14.40;;;11.00;99.90;;;;;;4998861;28;20214;-79
2023/12/29 01:59:38;;;;;;;15.13;14.00;;;11.00;99.90;;;;;;5024364;28;20715;-80
2023/12/29 02:02:05;;;;;;;15.43;14.23;;;11.00;99.90;;;;;;5017171;28;20210;-80
2023/12/29 02:04:33;;;;;;;15.53;14.43;;;11.00;99.90;;;;;;5015632;28;20220;-81
2023/12/29 02:07:00;;;;;;;15.00;14.10;;;11.00;99.90;;;;;;4984010;28;20212;-80
2023/12/29 02:09:27;;;;;;;15.77;14.30;;;11.00;99.90;;;;;;4997608;28;20594;-83
2023/12/29 02:11:56;;;;;;;15.50;14.23;;;10.90;99.90;;;;;;5009028;28;20511;-81
2023/12/29 02:14:23;;;;;;;15.30;14.30;;;10.90;99.90;;;;;;5011332;28;20286;-78
2023/12/29 02:17:14;;;;;;;16.00;14.50;;;10.80;99.90;;;;;;4995783;28;20295;-79
2023/12/29 02:19:44;;;;;;;16.10;15.00;;;10.80;99.90;;;;;;5013251;28;20675;-79
2023/12/29 02:22:12;;;;;;;15.00;14.10;;;10.70;99.90;;;;;;5012956;28;20204;-79
2023/12/29 02:24:47;;;;;;;15.67;14.47;;;10.70;99.90;;;;;;4994312;28;20697;-79
2023/12/29 02:27:38;;;;;;;15.70;14.60;;;10.70;99.90;;;;;;5010798;28;20195;-80
2023/12/29 02:30:21;;;;;;;15.30;13.90;;;10.70;99.90;;;;;;4992017;28;20283;-81
2023/12/29 02:32:54;;;;;;;15.47;14.40;;;10.50;99.90;;;;;;5014811;28;20204;-84
2023/12/29 02:35:27;;;;;;;15.00;14.00;;;10.40;99.90;;;;;;5006091;28;20291;-82
2023/12/29 02:37:59;;;;;;;14.77;13.87;;;10.30;99.90;;;;;;5006724;28;20603;-86
2023/12/29 02:40:33;;;;;;;16.30;15.00;;;10.20;99.90;;;;;;5016265;28;20282;-89
2023/12/29 02:43:01;;;;;;;15.77;14.50;;;10.20;99.90;;;;;;5018567;28;20188;-86
2023/12/29 02:45:28;;;;;;;15.03;14.13;;;10.10;99.90;;;;;;4998923;28;20304;-89
2023/12/29 02:47:55;;;;;;;15.27;14.37;;;10.00;99.90;;;;;;4997927;28;20292;-88
2023/12/29 02:50:22;;;;;;;16.60;14.50;;;10.00;99.90;;;;;;5005996;28;20192;-85
2023/12/29 02:53:15;;;;;;;15.00;14.00;;;9.90;99.90;;;;;;5003917;28;20197;-86
2023/12/29 02:55:42;;;;;;;14.40;13.50;;;9.70;99.90;;;;;;4997949;28;20232;-83
2023/12/29 02:58:09;;;;;;;14.43;13.03;;;9.50;99.90;;;;;;5003530;28;20299;-82
2023/12/29 03:04:38;;;;;;;13.50;12.40;;;9.40;99.90;;;;;;5033816;28;20199;-88
2023/12/29 03:07:06;;;;;;;13.20;12.20;;;9.40;99.90;;;;;;5002516;28;20223;-88
2023/12/29 03:09:33;;;;;;;13.47;12.60;;;9.30;99.90;;;;;;5018952;28;20228;-88
2023/12/29 03:12:00;;;;;;;12.73;11.93;;;9.30;99.90;;;;;;5020818;28;20192;-90
2023/12/29 03:14:28;;;;;;;13.80;12.60;;;9.40;99.90;;;;;;5002962;28;20286;-89
2023/12/29 03:16:55;;;;;;;13.40;12.50;;;9.30;99.90;;;;;;5018946;28;20660;-89
2023/12/29 03:19:22;;;;;;;13.03;12.00;;;9.30;99.90;;;;;;5019585;28;20648;-89
2023/12/29 03:21:49;;;;;;;13.10;12.00;;;9.20;99.90;;;;;;4998029;28;20197;-88
2023/12/29 03:24:16;;;;;;;12.90;12.07;;;9.10;99.90;;;;;;4999845;28;20695;-89
2023/12/29 03:26:43;;;;;;;13.07;12.17;;;9.10;99.90;;;;;;5002138;28;20204;-89
2023/12/29 03:29:12;;;;;;;13.27;12.17;;;9.10;99.90;;;;;;5018112;28;20200;-89
2023/12/29 03:31:40;;;;;;;12.60;11.80;;;9.10;99.90;;;;;;4998490;28;20567;-88
2023/12/29 03:34:41;;;;;;;12.23;11.47;;;9.10;99.90;;;;;;5006932;28;20196;-83
2023/12/29 03:37:09;;;;;;;11.40;10.80;;;9.10;99.90;;;;;;5026598;28;20212;-63
2023/12/29 03:39:36;;;;;;;11.77;10.90;;;9.10;99.90;;;;;;5021406;28;20612;-66
2023/12/29 03:42:04;;;;;;;12.17;11.30;;;9.10;99.90;;;;;;5021815;28;20207;-63
2023/12/29 03:44:31;;;;;;;12.60;11.60;;;9.10;99.90;;;;;;5025990;28;20249;-61
2023/12/29 03:46:58;;;;;;;12.20;11.20;;;9.10;99.90;;;;;;5028041;28;20215;-61
2023/12/29 03:49:25;;;;;;;12.47;11.30;;;9.20;99.90;;;;;;4996325;28;20695;-61
2023/12/29 03:51:52;;;;;;;11.73;10.93;;;9.20;99.90;;;;;;5012705;28;20255;-62
2023/12/29 03:54:21;;;;;;;11.50;10.80;;;9.20;99.90;;;;;;5020933;28;20698;-62
2023/12/29 03:56:48;;;;;;;11.73;10.80;;;9.20;99.90;;;;;;4997769;28;20511;-61
2023/12/29 03:59:15;;;;;;;12.00;11.00;;;9.30;99.90;;;;;;5013615;28;20196;-61
2023/12/29 04:01:42;;;;;;;14.50;11.60;;;9.30;99.90;;;;;;5012759;28;20200;-61
2023/12/29 04:04:10;;;;;;;11.60;10.93;;;9.30;99.90;;;;;;5029729;28;20210;-61
2023/12/29 04:06:37;;;;;;;13.03;11.80;;;9.40;99.90;;;;;;5027051;28;20224;-62
2023/12/29 04:09:04;;;;;;;12.30;11.60;;;9.40;99.90;;;;;;5028762;28;20639;-62
2023/12/29 04:11:31;;;;;;;12.40;11.50;;;9.40;99.90;;;;;;5008448;28;20838;-64
2023/12/29 04:13:58;;;;;;;12.93;11.40;;;9.40;99.90;;;;;;5017852;28;20227;-61
2023/12/29 04:16:27;;;;;;;12.67;11.43;;;9.50;99.90;;;;;;5013665;28;20648;-62
2023/12/29 04:18:54;;;;;;;12.33;11.20;;;9.60;99.90;;;;;;5003564;28;20188;-61
2023/12/29 04:21:22;;;;;;;11.77;11.07;;;9.70;99.90;;;;;;5009964;28;20191;-62
2023/12/29 04:23:49;;;;;;;12.20;11.30;;;9.70;99.90;;;;;;5016649;28;20204;-62
2023/12/29 04:26:15;;;;;;;12.37;11.37;;;9.70;99.90;;;;;;5011422;28;20581;-63
2023/12/29 04:28:44;;;;;;;12.67;11.40;;;9.70;99.90;;;;;;5013083;28;20243;-61
2023/12/29 04:31:11;;;;;;;12.80;11.70;;;9.80;99.90;;;;;;5027827;28;20337;-62
2023/12/29 04:33:38;;;;;;;12.23;11.40;;;9.90;99.90;;;;;;5029658;28;20181;-61
2023/12/29 04:36:06;;;;;;;11.73;11.03;;;9.90;99.90;;;;;;5023749;28;20232;-61
2023/12/29 04:38:33;;;;;;;12.50;11.40;;;9.90;99.90;;;;;;5034150;28;20200;-62
2023/12/29 04:41:00;;;;;;;12.53;11.60;;;10.00;99.90;;;;;;5030335;28;20690;-62
2023/12/29 04:43:27;;;;;;;12.30;11.67;;;9.90;99.90;;;;;;5008093;28;20196;-61
2023/12/29 04:45:54;;;;;;;13.20;12.20;;;9.90;99.90;;;;;;5011571;28;20644;-62
2023/12/29 04:48:21;;;;;;;13.57;12.50;;;9.90;99.90;;;;;;5025917;28;20192;-62
2023/12/29 04:50:48;;;;;;;13.53;12.50;;;9.80;99.90;;;;;;5021812;28;20238;-62
2023/12/29 04:53:15;;;;;;;13.53;12.20;;;9.80;99.90;;;;;;5024447;28;20562;-62
2023/12/29 04:55:42;;;;;;;13.67;12.47;;;9.90;99.90;;;;;;5029778;28;20193;-61
2023/12/29 04:58:09;;;;;;;12.57;11.77;;;10.00;99.90;;;;;;5031654;28;20227;-62
2023/12/29 05:00:36;;;;;;;12.30;11.50;;;10.00;99.90;;;;;;5021994;28;20663;-62
2023/12/29 05:03:03;;;;;;;15.67;12.20;;;10.00;99.90;;;;;;5025931;28;20374;-62
2023/12/29 05:05:30;;;;;;;13.33;12.03;;;10.00;99.90;;;;;;5013283;28;20208;-64
2023/12/29 05:07:57;;;;;;;13.23;11.87;;;10.00;99.90;;;;;;5030311;28;20234;-63
2023/12/29 05:10:25;;;;;;;13.80;12.50;;;10.10;99.90;;;;;;5012838;28;20199;-61
2023/12/29 05:12:51;;;;;;;13.03;12.13;;;10.10;99.90;;;;;;5029290;28;20200;-61
2023/12/29 05:15:18;;;;;;;12.90;12.00;;;10.10;99.90;;;;;;5019378;28;20201;-60
2023/12/29 05:17:45;;;;;;;13.43;12.47;;;10.10;99.90;;;;;;5029986;28;20552;-63
2023/12/29 05:20:13;;;;;;;12.90;12.13;;;10.20;99.90;;;;;;5018354;28;20198;-63
2023/12/29 05:22:39;;;;;;;12.47;11.67;;;10.30;99.90;;;;;;5002691;28;20258;-61
2023/12/29 05:25:07;;;;;;;13.50;12.30;;;10.30;99.90;;;;;;5011620;28;20263;-62
2023/12/29 05:27:34;;;;;;;13.30;12.13;;;10.30;99.90;;;;;;5013327;28;20279;-62
2023/12/29 05:30:02;;;;;;;13.23;12.30;;;10.30;99.90;;;;;;5012392;28;20247;-61
2023/12/29 05:32:29;;;;;;;15.20;12.63;;;10.30;99.90;;;;;;5029970;28;20561;-61
2023/12/29 05:34:56;;;;;;;12.90;12.00;;;10.30;99.90;;;;;;5029573;28;20200;-61
2023/12/29 05:37:23;;;;;;;13.10;12.17;;;10.30;99.90;;;;;;5030407;28;20283;-62
2023/12/29 05:39:50;;;;;;;13.53;12.33;;;10.30;99.90;;;;;;5027052;28;20271;-61
2023/12/29 05:42:18;;;;;;;13.67;12.57;;;10.30;99.90;;;;;;5024281;28;20558;-61
2023/12/29 05:44:44;;;;;;;13.03;12.23;;;10.30;99.90;;;;;;5029307;28;20710;-62
2023/12/29 05:47:12;;;;;;;13.70;12.63;;;10.20;99.90;;;;;;5011454;28;20536;-62
2023/12/29 05:49:39;;;;;;;13.33;12.30;;;10.30;99.90;;;;;;5020819;28;20670;-61
2023/12/29 05:52:06;;;;;;;13.67;12.60;;;10.20;99.90;;;;;;5003447;28;20212;-61
2023/12/29 05:54:34;;;;;;;13.10;12.20;;;10.20;99.90;;;;;;5008076;28;20670;-63
2023/12/29 05:57:01;;;;;;;13.53;12.30;;;10.20;99.90;;;;;;5029529;28;20196;-61
2023/12/29 05:59:28;;;;;;;13.97;12.77;;;10.20;99.90;;;;;;5011047;28;20197;-61
2023/12/29 06:01:57;;;;;;;15.30;13.90;;;10.20;99.90;;;;;;5021180;28;20208;-61
2023/12/29 06:04:24;;;;;;;13.07;12.13;;;10.20;99.90;;;;;;5004573;28;20199;-63
2023/12/29 06:06:51;;;;;;;13.20;12.30;;;10.10;99.90;;;;;;5035513;28;20786;-62
2023/12/29 06:09:18;;;;;;;15.17;13.70;;;10.00;99.90;;;;;;5017393;28;20279;-61
2023/12/29 06:11:46;;;;;;;14.23;13.07;;;10.00;99.90;;;;;;5028389;28;20192;-62
2023/12/29 06:14:13;;;;;;;14.80;13.60;;;10.00;99.90;;;;;;5006945;28;20193;-61
2023/12/29 06:16:40;;;;;;;13.37;12.47;;;10.00;99.90;;;;;;5015903;28;20180;-65
2023/12/29 06:19:08;;;;;;;15.27;14.17;;;10.00;99.90;;;;;;5030156;28;20291;-66
2023/12/29 06:21:45;;;;;;;14.73;13.37;;;10.10;99.90;;;;;;5017175;28;20246;-66
2023/12/29 06:24:13;;;;;;;14.03;12.90;;;10.10;99.90;;;;;;5027334;28;20192;-67
2023/12/29 06:26:42;;;;;;;13.57;12.50;;;10.20;99.90;;;;;;5025575;28;20698;-70
2023/12/29 06:29:10;;;;;;;13.33;12.33;;;10.10;99.90;;;;;;5028761;28;20548;-67
2023/12/29 06:31:41;;;;;;;13.30;12.50;;;10.10;99.90;;;;;;5028458;28;20192;-62
2023/12/29 06:34:09;;;;;;;14.53;13.33;;;10.20;99.90;;;;;;5028208;28;20192;-62
2023/12/29 06:36:36;;;;;;;13.40;12.43;;;10.20;99.90;;;;;;4992232;28;20229;-62
2023/12/29 06:39:03;;;;;;;12.90;12.10;;;10.10;99.90;;;;;;4989692;28;20654;-61
2023/12/29 06:41:30;;;;;;;16.13;13.23;;;10.10;99.90;;;;;;4972484;28;20320;-62
2023/12/29 06:43:57;;;;;;;13.33;12.57;;;10.20;99.90;;;;;;4988931;28;20189;-64
2023/12/29 06:46:24;;;;;;;13.80;12.87;;;10.20;99.90;;;;;;4996639;28;20217;-63
2023/12/29 06:48:51;;;;;;;13.73;12.70;;;10.20;99.90;;;;;;4986641;28;20589;-63
2023/12/29 06:51:18;;;;;;;14.23;13.20;;;10.30;99.90;;;;;;4988155;28;20580;-61
2023/12/29 06:53:47;;;;;;;16.70;13.10;;;10.30;99.90;;;;;;4972852;28;20655;-62
2023/12/29 06:56:15;;;;;;;14.67;13.33;;;10.30;99.90;;;;;;4989260;28;20255;-63
2023/12/29 06:58:43;;;;;;;13.70;12.70;;;10.30;99.90;;;;;;4987763;28;20201;-62
2023/12/29 07:01:10;;;;;;;13.90;12.70;;;10.30;99.90;;;;;;4989608;28;20201;-61
2023/12/29 07:03:37;;;;;;;13.20;12.40;;;10.20;99.90;;;;;;4989107;28;20268;-62
2023/12/29 07:06:04;;;;;;;14.30;12.83;;;10.20;99.90;;;;;;4982639;28;20276;-63
2023/12/29 07:08:31;;;;;;;13.33;12.33;;;10.30;99.90;;;;;;4999965;28;20204;-62
2023/12/29 07:10:58;;;;;;;13.57;12.47;;;10.20;99.90;;;;;;4987324;28;20643;-61
2023/12/29 07:13:25;;;;;;;13.53;12.37;;;10.30;99.90;;;;;;4992034;28;20197;-62
2023/12/29 07:15:52;;;;;;;13.10;12.23;;;10.30;99.90;;;;;;4985655;28;20658;-62
2023/12/29 07:18:19;;;;;;;13.83;12.53;;;10.30;99.90;;;;;;4987482;28;20307;-61
2023/12/29 07:20:46;;;;;;;14.03;13.03;;;10.40;99.90;;;;;;4988807;28;20201;-63
2023/12/29 07:23:13;;;;;;;14.33;12.50;;;10.30;99.90;;;;;;4987229;28;20552;-63
2023/12/29 07:25:41;;;;;;;12.87;12.07;;;10.40;99.90;;;;;;4987436;28;20197;-61
2023/12/29 07:28:08;;;;;;;14.10;12.87;;;10.30;99.90;;;;;;4991055;28;20625;-61
2023/12/29 07:30:35;;;;;;;13.63;12.57;;;10.40;99.90;;;;;;4990696;28;20773;-62
2023/12/29 07:33:02;;;;;;;13.97;12.60;;;10.40;99.90;;;;;;4988497;28;20549;-62
2023/12/29 07:35:29;;;;;;;13.77;12.40;;;10.40;99.90;;;;;;5003450;28;20235;-61
2023/12/29 07:37:57;;;;;;;13.77;12.43;;;10.40;99.90;;;;;;5036813;28;20681;-62
2023/12/29 07:40:24;;;;;;;13.50;12.50;;;10.40;99.90;;;;;;5031455;28;20282;-62
2023/12/29 07:42:52;;;;;;;13.03;12.13;;;10.40;99.90;;;;;;5013521;28;20723;-62
2023/12/29 07:45:19;;;;;;;13.50;12.50;;;10.40;99.90;;;;;;5010152;28;20188;-63
2023/12/29 07:47:46;;;;;;;13.90;12.93;;;10.40;99.90;;;;;;4993230;28;20688;-63
2023/12/29 07:50:13;;;;;;;13.77;12.73;;;10.30;99.90;;;;;;5018800;28;20192;-60
2023/12/29 07:52:43;;;;;;;13.97;12.87;;;10.20;99.90;;;;;;5025573;28;20267;-63
2023/12/29 07:55:10;;;;;;;14.03;12.97;;;10.00;99.90;;;;;;5019404;28;20222;-63
2023/12/29 07:57:37;;;;;;;13.20;12.40;;;9.90;99.90;;;;;;5009767;28;20211;-62
2023/12/29 08:00:06;;;;;;;13.80;12.67;;;9.80;99.90;;;;;;5027749;28;20459;-61
2023/12/29 08:02:37;;;;;;;14.23;12.93;;;9.80;99.90;;;;;;5028050;28;20310;-66
2023/12/29 08:05:04;;;;;;;13.97;12.77;;;9.80;99.90;;;;;;5010422;28;20676;-67
2023/12/29 08:07:32;;;;;;;13.33;12.50;;;9.70;99.90;;;;;;5013289;28;20224;-69
2023/12/29 08:09:59;;;;;;;13.80;12.40;;;9.70;99.90;;;;;;5022663;28;20200;-67
2023/12/29 08:12:28;;;;;;;14.57;12.77;;;9.70;99.90;;;;;;5024510;28;20189;-67
2023/12/29 08:14:55;;;;;;;13.17;12.43;;;9.80;99.90;;;;;;5005372;28;20244;-67
2023/12/29 08:17:22;;;;;;;13.87;12.97;;;9.80;99.90;;;;;;5009112;28;20683;-67
2023/12/29 08:19:49;;;;;;;14.13;13.03;;;9.80;99.90;;;;;;5026552;28;20270;-67
2023/12/29 08:22:16;;;;;;;13.17;12.37;;;9.70;99.90;;;;;;5024649;28;20188;-67
2023/12/29 08:24:43;;;;;;;13.67;12.70;;;9.80;99.90;;;;;;5016938;28;20192;-66
2023/12/29 08:27:13;;;;;;;14.57;13.20;;;9.70;99.90;;;;;;4996345;28;20524;-66
2023/12/29 08:29:40;;;;;;;13.87;12.83;;;9.70;99.90;;;;;;5040513;28;20192;-71
2023/12/29 08:32:08;;;;;;;14.37;13.30;;;9.70;99.90;;;;;;5023187;28;20358;-67
2023/12/29 08:34:37;;;;;;;14.63;13.10;;;9.70;99.90;;;;;;5019313;28;20188;-67
2023/12/29 08:37:04;;;;;;;13.90;12.90;;;9.80;99.90;;;;;;5032310;28;20705;-67
2023/12/29 08:39:31;;;;;;;13.07;12.27;;;9.80;99.90;;;;;;5043028;28;20574;-66
2023/12/29 08:41:58;;;;;;;12.90;12.00;;;9.80;99.90;;;;;;5014791;28;20552;-67
2023/12/29 08:44:25;;;;;;;12.90;12.00;;;9.70;99.90;;;;;;5030984;28;20279;-66
2023/12/29 08:46:52;;;;;;;13.77;12.90;;;9.70;99.90;;;;;;5031612;28;20215;-68
2023/12/29 08:49:19;;;;;;;13.57;12.40;;;9.60;99.90;;;;;;5033895;28;20196;-68
2023/12/29 08:51:47;;;;;;;13.27;12.10;;;9.60;99.90;;;;;;5031727;28;20215;-63
2023/12/29 08:54:14;;;;;;;12.80;11.90;;;9.60;99.90;;;;;;5030757;28;20250;-63
2023/12/29 08:56:41;;;;;;;12.73;11.83;;;9.60;99.90;;;;;;5013471;28;20200;-63
2023/12/29 08:59:08;;;;;;;13.63;12.30;;;9.60;99.90;;;;;;5016453;28;20203;-63
2023/12/29 09:01:35;;;;;;;12.37;11.50;;;9.60;99.90;;;;;;5019609;28;20551;-62
2023/12/29 09:04:02;;;;;;;12.40;11.40;;;9.50;99.90;;;;;;5030869;28;20191;-63
2023/12/29 09:06:29;;;;;;;11.80;11.00;;;9.60;99.90;;;;;;5030917;28;20224;-62
2023/12/29 09:08:58;;;;;;;11.40;10.73;;;9.50;99.90;;;;;;5019926;28;20200;-72
2023/12/29 09:11:26;;;;;;;11.27;10.67;;;9.50;99.90;;;;;;5029966;28;20554;-62
2023/12/29 09:13:53;;;;;;;11.90;10.90;;;9.40;99.90;;;;;;5013517;28;20192;-63
2023/12/29 09:16:20;;;;;;;11.33;10.73;;;9.50;99.90;;;;;;5026185;28;20188;-63
2023/12/29 09:18:47;;;;;;;11.90;11.20;;;9.50;99.90;;;;;;5027717;28;20287;-63
2023/12/29 09:21:14;;;;;;;11.37;10.67;;;9.50;99.90;;;;;;5030844;28;20200;-67
2023/12/29 09:23:41;;;;;;;11.37;10.63;;;9.50;99.90;;;;;;5026116;28;20367;-63
2023/12/29 09:26:08;;;;;;;12.13;11.33;;;9.60;99.90;;;;;;4989813;28;20197;-64
2023/12/29 09:28:35;;;;;;;11.73;11.03;;;9.70;99.90;;;;;;5030297;28;20219;-63
2023/12/29 09:31:02;;;;;;;12.33;11.13;;;9.70;99.90;;;;;;5030539;28;20596;-63
2023/12/29 09:33:29;;;;;;;12.10;11.40;;;9.80;99.90;;;;;;5024205;28;20196;-63
2023/12/29 09:35:56;;;;;;;12.30;11.57;;;9.80;99.90;;;;;;5015577;28;20809;-64
2023/12/29 09:38:23;;;;;;;11.90;11.23;;;9.80;99.90;;;;;;5033752;28;20287;-63
2023/12/29 09:40:52;;;;;;;12.03;11.20;;;9.80;99.90;;;;;;5031523;28;20195;-64
2023/12/29 09:43:19;;;;;;;12.03;11.40;;;9.80;99.90;;;;;;5038886;28;20612;-63
2023/12/29 09:45:48;;;;;;;12.53;11.40;;;9.90;99.90;;;;;;5011155;28;20670;-64
2023/12/29 09:48:19;;;;;;;12.23;11.43;;;9.90;99.90;;;;;;5029520;28;20220;-64
2023/12/29 09:50:50;;;;;;;12.30;11.40;;;9.90;99.90;;;;;;5025725;28;20196;-63
2023/12/29 09:53:19;;;;;;;12.43;11.53;;;9.90;99.90;;;;;;5028789;28;20200;-64
2023/12/29 09:55:49;;;;;;;12.27;11.47;;;9.90;99.90;;;;;;5027105;28;20274;-64
2023/12/29 09:58:19;;;;;;;11.90;11.30;;;10.00;99.90;;;;;;5010798;28;20682;-63
2023/12/29 10:00:50;;;;;;;12.20;11.60;;;10.00;99.90;;;;;;5012257;28;20279;-69
2023/12/29 10:03:17;;;;;;;12.37;11.67;;;10.00;99.90;;;;;;5012585;28;20205;-70
2023/12/29 10:05:51;;;;;;;11.53;10.93;;;10.00;99.90;;;;;;5029233;28;20224;-69
2023/12/29 10:08:19;;;;;;;12.27;11.57;;;10.00;99.90;;;;;;5029686;28;20258;-70
2023/12/29 10:10:49;;;;;;;12.10;11.47;;;10.10;99.90;;;;;;5012824;28;20600;-69
2023/12/29 10:13:18;;;;;;;12.00;11.30;;;10.10;99.90;;;;;;5008284;28;20792;-70
2023/12/29 10:16:12;;;;;;;11.93;11.33;;;10.20;99.90;;;;;;5016687;28;20221;-67
2023/12/29 10:18:49;;;;;;;12.30;11.60;;;10.20;99.90;;;;;;5011957;28;20290;-70
2023/12/29 10:21:16;;;;;;;12.03;11.40;;;10.20;99.90;;;;;;5029779;28;20278;-70
2023/12/29 10:23:53;;;;;;;12.20;11.60;;;10.20;99.90;;;;;;5034090;28;20567;-68
2023/12/29 10:26:20;;;;;;;11.80;11.20;;;10.30;99.90;;;;;;5026785;28;20192;-68
2023/12/29 10:28:48;;;;;;;11.77;11.17;;;10.30;99.90;;;;;;5021504;28;20243;-68
2023/12/29 10:31:18;;;;;;;11.90;11.30;;;10.40;99.90;;;;;;5017732;28;20412;-67
2023/12/29 10:33:50;;;;;;;12.17;11.37;;;10.50;99.90;;;;;;5016063;28;20224;-70
2023/12/29 10:36:17;;;;;;;12.17;11.53;;;10.50;99.90;;;;;;5020687;28;20316;-70
2023/12/29 10:38:44;;;;;;;12.30;11.60;;;10.50;99.90;;;;;;5023123;28;20247;-68
2023/12/29 10:41:16;;;;;;;12.33;11.73;;;10.50;99.90;;;;;;5011679;28;20659;-70
2023/12/29 10:43:47;;;;;;;12.33;11.67;;;10.50;99.90;;;;;;5026765;28;20235;-68
2023/12/29 10:46:14;;;;;;;12.43;11.73;;;10.50;99.90;;;;;;5017349;28;20192;-68
2023/12/29 10:48:42;;;;;;;12.90;12.20;;;10.50;99.90;;;;;;5004156;28;20307;-69
2023/12/29 10:51:09;;;;;;;12.57;11.87;;;10.50;99.90;;;;;;5006974;28;20192;-68
2023/12/29 10:53:37;;;;;;;12.40;11.60;;;10.50;99.90;;;;;;5022163;28;20230;-68
2023/12/29 10:56:26;;;;;;;12.10;11.50;;;10.40;99.90;;;;;;5028318;28;20196;-68
2023/12/29 10:59:04;;;;;;;12.43;11.73;;;10.40;99.90;;;;;;5019220;28;20473;-68
2023/12/29 11:01:32;;;;;;;12.13;11.50;;;10.50;99.90;;;;;;5006877;28;20196;-68
2023/12/29 11:04:05;;;;;;;11.60;11.00;;;10.50;99.90;;;;;;5004209;28;20669;-69
2023/12/29 11:06:46;;;;;;;12.00;11.30;;;10.60;99.90;;;;;;5020685;28;20216;-69
2023/12/29 11:09:13;;;;;;;11.70;11.10;;;10.60;99.90;;;;;;5027126;28;20306;-69
2023/12/29 11:11:42;;;;;;;12.00;11.40;;;10.60;99.90;;;;;;5013482;28;20227;-68
2023/12/29 11:14:11;;;;;;;11.83;11.20;;;10.60;99.90;;;;;;5022119;28;20200;-68
2023/12/29 11:16:41;;;;;;;11.80;11.20;;;10.60;99.90;;;;;;5004458;28;20192;-68
2023/12/29 11:19:11;;;;;;;13.10;12.30;;;10.70;99.90;;;;;;5003792;28;20631;-67
2023/12/29 11:21:41;;;;;;;12.27;11.50;;;10.80;99.90;;;;;;5021952;28;20193;-68
2023/12/29 11:24:08;;;;;;;12.17;11.57;;;10.90;99.90;;;;;;5019469;28;20220;-67
2023/12/29 11:26:37;;;;;;;12.10;11.40;;;11.00;99.90;;;;;;5009060;28;20254;-68
2023/12/29 11:29:04;;;;;;;12.50;11.80;;;11.00;99.90;;;;;;5024654;28;20219;-71
2023/12/29 11:31:32;;;;;;;12.40;11.77;;;11.00;99.90;;;;;;5028535;28;20192;-69
2023/12/29 11:34:10;;;;;;;12.40;11.80;;;11.20;99.90;;;;;;5026797;28;20262;-68
2023/12/29 11:36:45;;;;;;;12.40;11.80;;;11.20;99.90;;;;;;5020278;28;20248;-68
2023/12/29 11:39:38;;;;;;;12.27;11.67;;;11.10;99.90;;;;;;5023547;28;20192;-68
2023/12/29 11:42:12;;;;;;;11.90;11.30;;;11.10;99.90;;;;;;5021908;28;20192;-76
2023/12/29 11:44:39;;;;;;;11.80;11.20;;;11.30;99.90;;;;;;5018767;28;20690;-69
2023/12/29 11:47:35;;;;;;;12.67;11.87;;;11.30;99.90;;;;;;5022264;28;20219;-69
2023/12/29 11:50:04;;;;;;;12.80;11.90;;;11.40;99.90;;;;;;5024380;28;20192;-69
2023/12/29 11:52:39;;;;;;;13.10;12.40;;;11.50;99.90;;;;;;5006293;28;20204;-74
2023/12/29 11:55:10;;;;;;;12.37;11.77;;;11.60;99.90;;;;;;5008971;28;20279;-71
2023/12/29 11:57:41;;;;;;;13.00;12.20;;;11.60;99.90;;;;;;5022796;28;20621;-67
2023/12/29 12:00:09;;;;;;;12.73;12.00;;;11.60;99.90;;;;;;5026034;28;20195;-69
2023/12/29 12:02:39;;;;;;;12.77;12.00;;;11.40;99.90;;;;;;5029829;28;20259;-67
2023/12/29 12:05:10;;;;;;;12.90;12.20;;;11.50;99.90;;;;;;5032798;28;20257;-68
2023/12/29 12:07:41;;;;;;;12.90;12.10;;;11.30;99.90;;;;;;5028802;28;20228;-69
2023/12/29 12:10:23;;;;;;;12.90;12.30;;;11.40;99.90;;;;;;5012831;28;20218;-72
2023/12/29 12:12:51;;;;;;;13.10;12.40;;;11.40;99.90;;;;;;5008763;28;20672;-69
2023/12/29 12:15:30;;;;;;;13.63;12.63;;;11.40;99.90;;;;;;5024514;28;20193;-69
2023/12/29 12:18:07;;;;;;;13.40;12.60;;;11.30;99.90;;;;;;5019497;28;20201;-69
2023/12/29 12:20:35;;;;;;;13.07;12.37;;;11.20;99.90;;;;;;5008888;28;20210;-69
2023/12/29 12:23:12;;;;;;;13.67;12.80;;;11.10;99.90;;;;;;5025281;28;20196;-62
2023/12/29 12:25:40;;;;;;;13.27;12.47;;;11.00;99.90;;;;;;5025772;28;20208;-62
2023/12/29 12:28:09;;;;;;;13.07;12.37;;;11.10;99.90;;;;;;5009443;28;20318;-63
2023/12/29 12:30:38;;;;;;;12.73;11.93;;;11.10;99.90;;;;;;5023226;28;20209;-63
2023/12/29 12:33:05;;;;;;;12.60;11.90;;;11.10;99.90;;;;;;5020410;28;20653;-62
2023/12/29 12:35:33;;;;;;;12.67;12.00;;;11.10;99.90;;;;;;5014269;28;20719;-61
2023/12/29 12:38:16;;;;;;;12.80;12.00;;;11.20;99.90;;;;;;5001937;28;20620;-66
2023/12/29 12:40:43;;;;;;;12.50;11.80;;;11.30;99.90;;;;;;5027264;28;20214;-62
2023/12/29 12:43:17;;;;;;;12.70;12.00;;;11.30;99.90;;;;;;5024261;28;20200;-65